Time,TemperatureF,DewpointF,PressureIn,WindDirection,WindDirectionDegrees,WindSpeedMPH,WindSpeedGustMPH,Humidity,HourlyPrecipIn,Conditions,Clouds,dailyrainin,SoftwareType,DateUTC
2013-02-22 00:06:00,38.7,39.0,30.00,South,175,10.0,10.0,99,0.03,,,0.00,weatherlink.com 1.10,2013-02-22 08:06:00,
2013-02-22 00:21:00,38.5,38.0,30.00,ESE,105,3.0,8.0,98,0.03,,,0.01,weatherlink.com 1.10,2013-02-22 08:21:00,
2013-02-22 00:36:00,38.3,38.0,29.99,SE,139,5.0,12.0,98,0.03,,,0.02,weatherlink.com 1.10,2013-02-22 08:36:00,
2013-02-22 00:51:00,38.2,38.0,29.99,SE,133,5.0,11.0,99,0.02,,,0.02,weatherlink.com 1.10,2013-02-22 08:51:00,
2013-02-22 01:06:00,37.9,37.0,29.98,SE,141,6.0,8.0,98,0.03,,,0.03,weatherlink.com 1.10,2013-02-22 09:06:00,
2013-02-22 01:21:00,37.5,37.0,29.98,SSE,161,4.0,8.0,99,0.03,,,0.04,weatherlink.com 1.10,2013-02-22 09:21:00,
2013-02-22 01:36:00,37.4,37.0,29.97,ESE,115,0.0,7.0,99,0.04,,,0.06,weatherlink.com 1.10,2013-02-22 09:36:00,
2013-02-22 01:51:00,37.4,37.0,29.97,ESE,106,5.0,10.0,99,0.05,,,0.07,weatherlink.com 1.10,2013-02-22 09:51:00,
2013-02-22 02:06:00,37.6,37.0,29.96,SSE,149,7.0,12.0,99,0.06,,,0.09,weatherlink.com 1.10,2013-02-22 10:06:00,
2013-02-22 02:21:00,37.7,38.0,29.96,ESE,109,4.0,14.0,99,0.06,,,0.10,weatherlink.com 1.10,2013-02-22 10:21:00,
2013-02-22 02:36:00,37.6,37.0,29.94,East,99,5.0,12.0,99,0.04,,,0.10,weatherlink.com 1.10,2013-02-22 10:36:00,
2013-02-22 02:51:00,37.7,38.0,29.94,SE,124,3.0,16.0,99,0.04,,,0.11,weatherlink.com 1.10,2013-02-22 10:51:00,
2013-02-22 03:06:00,38.0,38.0,29.93,SSE,148,5.0,15.0,99,0.03,,,0.12,weatherlink.com 1.10,2013-02-22 11:06:00,
2013-02-22 03:21:00,38.0,38.0,29.92,ESE,111,7.0,13.0,99,0.03,,,0.13,weatherlink.com 1.10,2013-02-22 11:21:00,
2013-02-22 03:36:00,37.9,38.0,29.90,ESE,109,9.0,18.0,99,0.05,,,0.15,weatherlink.com 1.10,2013-02-22 11:36:00,
2013-02-22 03:51:00,37.6,37.0,29.89,SE,130,8.0,14.0,99,0.05,,,0.16,weatherlink.com 1.10,2013-02-22 11:51:00,
2013-02-22 04:07:00,37.7,38.0,29.88,ESE,119,7.0,18.0,99,0.04,,,0.16,weatherlink.com 1.10,2013-02-22 12:07:00,
2013-02-22 04:21:00,37.6,37.0,29.86,East,88,6.0,18.0,99,0.03,,,0.16,weatherlink.com 1.10,2013-02-22 12:21:00,
2013-02-22 04:37:00,37.2,37.0,29.85,ESE,107,11.0,27.0,99,0.02,,,0.17,weatherlink.com 1.10,2013-02-22 12:37:00,
2013-02-22 04:51:00,37.3,37.0,29.84,ESE,117,12.0,22.0,99,0.01,,,0.17,weatherlink.com 1.10,2013-02-22 12:51:00,
2013-02-22 05:06:00,37.7,38.0,29.82,SE,132,10.0,26.0,99,0.01,,,0.17,weatherlink.com 1.10,2013-02-22 13:06:00,
2013-02-22 05:22:00,37.9,38.0,29.82,ESE,114,13.0,28.0,99,0.01,,,0.17,weatherlink.com 1.10,2013-02-22 13:22:00,
2013-02-22 05:37:00,37.9,38.0,29.80,SE,140,19.0,27.0,99,0.00,,,0.17,weatherlink.com 1.10,2013-02-22 13:37:00,
2013-02-22 05:52:00,38.0,38.0,29.79,ESE,120,11.0,21.0,99,0.00,,,0.17,weatherlink.com 1.10,2013-02-22 13:52:00,
2013-02-22 06:07:00,38.1,38.0,29.77,ESE,123,8.0,21.0,99,0.00,,,0.17,weatherlink.com 1.10,2013-02-22 14:07:00,
2013-02-22 06:22:00,38.2,38.0,29.76,SSE,151,8.0,23.0,99,0.00,,,0.17,weatherlink.com 1.10,2013-02-22 14:22:00,
2013-02-22 06:37:00,38.3,38.0,29.76,SE,144,9.0,27.0,99,0.00,,,0.17,weatherlink.com 1.10,2013-02-22 14:37:00,
2013-02-22 06:52:00,38.2,38.0,29.75,East,92,8.0,25.0,99,0.00,,,0.17,weatherlink.com 1.10,2013-02-22 14:52:00,
2013-02-22 07:07:00,38.3,38.0,29.76,ESE,115,7.0,22.0,99,0.00,,,0.17,weatherlink.com 1.10,2013-02-22 15:07:00,
2013-02-22 07:22:00,38.3,38.0,29.76,SE,126,9.0,23.0,99,0.00,,,0.17,weatherlink.com 1.10,2013-02-22 15:22:00,
2013-02-22 07:37:00,38.3,38.0,29.74,SE,126,5.0,23.0,99,0.00,,,0.17,weatherlink.com 1.10,2013-02-22 15:37:00,
2013-02-22 07:52:00,38.4,38.0,29.75,SSE,153,13.0,19.0,99,0.01,,,0.18,weatherlink.com 1.10,2013-02-22 15:52:00,
2013-02-22 08:07:00,38.6,38.0,29.72,East,85,16.0,27.0,99,0.01,,,0.18,weatherlink.com 1.10,2013-02-22 16:07:00,
2013-02-22 08:22:00,38.7,39.0,29.71,SE,142,13.0,20.0,99,0.03,,,0.20,weatherlink.com 1.10,2013-02-22 16:22:00,
2013-02-22 08:37:00,38.8,39.0,29.71,SE,140,5.0,22.0,99,0.03,,,0.20,weatherlink.com 1.10,2013-02-22 16:37:00,
2013-02-22 08:52:00,38.9,39.0,29.71,SE,146,7.0,18.0,99,0.02,,,0.20,weatherlink.com 1.10,2013-02-22 16:52:00,
2013-02-22 09:07:00,39.0,39.0,29.70,ESE,119,8.0,20.0,99,0.03,,,0.21,weatherlink.com 1.10,2013-02-22 17:07:00,
2013-02-22 09:22:00,39.0,39.0,29.68,SSE,151,9.0,22.0,99,0.02,,,0.22,weatherlink.com 1.10,2013-02-22 17:22:00,
2013-02-22 09:37:00,39.0,39.0,29.68,SSE,149,21.0,22.0,99,0.03,,,0.23,weatherlink.com 1.10,2013-02-22 17:37:00,
2013-02-22 09:52:00,38.9,39.0,29.67,SSE,150,8.0,27.0,99,0.03,,,0.24,weatherlink.com 1.10,2013-02-22 17:52:00,
2013-02-22 10:07:00,38.8,39.0,29.66,SE,128,7.0,24.0,99,0.04,,,0.25,weatherlink.com 1.10,2013-02-22 18:07:00,
2013-02-22 10:22:00,38.7,39.0,29.64,ESE,118,10.0,34.0,99,0.03,,,0.25,weatherlink.com 1.10,2013-02-22 18:22:00,
2013-02-22 10:37:00,38.5,38.0,29.64,South,174,11.0,29.0,99,0.02,,,0.25,weatherlink.com 1.10,2013-02-22 18:37:00,
2013-02-22 10:52:00,38.5,38.0,29.64,SE,144,10.0,19.0,99,0.01,,,0.25,weatherlink.com 1.10,2013-02-22 18:52:00,
2013-02-22 11:07:00,38.6,38.0,29.65,SE,141,9.0,18.0,99,0.00,,,0.25,weatherlink.com 1.10,2013-02-22 19:07:00,
2013-02-22 11:22:00,38.5,39.0,29.64,SE,139,8.0,26.0,100,0.00,,,0.25,weatherlink.com 1.10,2013-02-22 19:22:00,
2013-02-22 11:37:00,38.4,38.0,29.64,SSE,148,7.0,23.0,100,0.01,,,0.26,weatherlink.com 1.10,2013-02-22 19:37:00,
2013-02-22 11:52:00,38.3,38.0,29.63,ESE,116,11.0,24.0,99,0.01,,,0.26,weatherlink.com 1.10,2013-02-22 19:52:00,
2013-02-22 12:08:00,38.3,38.0,29.63,ESE,121,11.0,19.0,99,0.01,,,0.26,weatherlink.com 1.10,2013-02-22 20:08:00,
2013-02-22 12:22:00,38.4,38.0,29.62,SE,146,10.0,21.0,99,0.01,,,0.26,weatherlink.com 1.10,2013-02-22 20:22:00,
2013-02-22 12:39:00,38.4,38.0,29.64,SE,127,6.0,27.0,100,0.00,,,0.26,weatherlink.com 1.10,2013-02-22 20:39:00,
2013-02-22 12:52:00,38.3,38.0,29.62,SSE,165,9.0,22.0,99,0.00,,,0.26,weatherlink.com 1.10,2013-02-22 20:52:00,
2013-02-22 13:08:00,38.5,39.0,29.62,SSE,158,8.0,17.0,100,0.00,,,0.26,weatherlink.com 1.10,2013-02-22 21:08:00,
2013-02-22 13:22:00,38.7,39.0,29.62,SSE,159,5.0,22.0,100,0.00,,,0.26,weatherlink.com 1.10,2013-02-22 21:22:00,
2013-02-22 13:37:00,39.1,39.0,29.64,South,184,13.0,17.0,99,0.00,,,0.26,weatherlink.com 1.10,2013-02-22 21:37:00,
2013-02-22 13:53:00,39.2,39.0,29.63,SSE,164,7.0,19.0,100,0.00,,,0.26,weatherlink.com 1.10,2013-02-22 21:53:00,
2013-02-22 14:07:00,40.1,40.0,29.63,SE,144,10.0,19.0,100,0.00,,,0.26,weatherlink.com 1.10,2013-02-22 22:07:00,
2013-02-22 14:23:00,40.6,41.0,29.64,South,177,6.0,15.0,100,0.00,,,0.26,weatherlink.com 1.10,2013-02-22 22:23:00,
2013-02-22 14:37:00,40.2,40.0,29.63,South,175,9.0,16.0,100,0.00,,,0.26,weatherlink.com 1.10,2013-02-22 22:37:00,
2013-02-22 14:52:00,39.4,39.0,29.64,West,265,11.0,22.0,99,0.02,,,0.28,weatherlink.com 1.10,2013-02-22 22:52:00,
2013-02-22 15:07:00,39.2,39.0,29.65,South,173,15.0,18.0,99,0.02,,,0.28,weatherlink.com 1.10,2013-02-22 23:07:00,
2013-02-22 15:22:00,40.0,39.0,29.65,SSW,198,10.0,24.0,94,0.02,,,0.28,weatherlink.com 1.10,2013-02-22 23:22:00,
2013-02-22 15:38:00,40.1,37.0,29.64,SW,219,22.0,31.0,89,0.02,,,0.28,weatherlink.com 1.10,2013-02-22 23:38:00,
2013-02-22 15:52:00,41.1,38.0,29.64,SSW,213,12.0,18.0,90,0.00,,,0.28,weatherlink.com 1.10,2013-02-22 23:52:00,
2013-02-22 16:08:00,41.8,38.0,29.64,SSW,202,8.0,21.0,87,0.00,,,0.28,weatherlink.com 1.10,2013-02-23 00:08:00,
2013-02-22 16:23:00,41.6,36.0,29.64,SW,219,8.0,26.0,81,0.00,,,0.28,weatherlink.com 1.10,2013-02-23 00:23:00,
2013-02-22 16:38:00,42.2,37.0,29.65,WSW,243,3.0,22.0,81,0.00,,,0.28,weatherlink.com 1.10,2013-02-23 00:38:00,
2013-02-22 16:53:00,42.1,35.0,29.65,SW,226,9.0,18.0,77,0.00,,,0.28,weatherlink.com 1.10,2013-02-23 00:53:00,
2013-02-22 17:08:00,41.1,34.0,29.66,WSW,253,10.0,26.0,76,0.00,,,0.28,weatherlink.com 1.10,2013-02-23 01:08:00,
2013-02-22 17:23:00,40.0,35.0,29.65,West,259,11.0,34.0,81,0.00,,,0.28,weatherlink.com 1.10,2013-02-23 01:23:00,
2013-02-22 17:38:00,39.0,33.0,29.67,West,271,16.0,30.0,80,0.00,,,0.28,weatherlink.com 1.10,2013-02-23 01:38:00,
2013-02-22 17:53:00,38.0,33.0,29.67,SW,229,22.0,33.0,83,0.00,,,0.28,weatherlink.com 1.10,2013-02-23 01:53:00,
2013-02-22 18:08:00,37.4,34.0,29.69,SW,229,10.0,24.0,86,0.00,,,0.28,weatherlink.com 1.10,2013-02-23 02:08:00,
2013-02-22 18:23:00,36.9,34.0,29.70,WSW,242,12.0,28.0,89,0.00,,,0.28,weatherlink.com 1.10,2013-02-23 02:23:00,
2013-02-22 18:38:00,35.8,34.0,29.71,SW,231,10.0,25.0,92,0.00,,,0.28,weatherlink.com 1.10,2013-02-23 02:38:00,
2013-02-22 18:53:00,35.6,34.0,29.71,SSW,211,13.0,23.0,93,0.00,,,0.28,weatherlink.com 1.10,2013-02-23 02:53:00,
2013-02-22 19:08:00,35.6,34.0,29.71,SSW,199,7.0,20.0,93,0.00,,,0.28,weatherlink.com 1.10,2013-02-23 03:08:00,
2013-02-22 19:23:00,35.6,34.0,29.72,WSW,253,7.0,19.0,93,0.00,,,0.28,weatherlink.com 1.10,2013-02-23 03:23:00,
2013-02-22 19:38:00,35.6,34.0,29.73,SW,235,15.0,20.0,93,0.00,,,0.28,weatherlink.com 1.10,2013-02-23 03:38:00,
2013-02-22 19:53:00,35.8,34.0,29.72,WSW,250,12.0,20.0,92,0.00,,,0.28,weatherlink.com 1.10,2013-02-23 03:53:00,
2013-02-22 20:08:00,35.9,34.0,29.72,SW,228,7.0,17.0,92,0.00,,,0.28,weatherlink.com 1.10,2013-02-23 04:08:00,
2013-02-22 20:23:00,35.7,34.0,29.73,SW,225,16.0,18.0,93,0.00,,,0.28,weatherlink.com 1.10,2013-02-23 04:23:00,
2013-02-22 20:38:00,35.7,34.0,29.73,South,177,5.0,21.0,92,0.00,,,0.28,weatherlink.com 1.10,2013-02-23 04:38:00,
2013-02-22 20:53:00,36.0,33.0,29.74,WSW,241,19.0,19.0,90,0.00,,,0.28,weatherlink.com 1.10,2013-02-23 04:53:00,
2013-02-22 21:08:00,36.1,33.0,29.75,West,259,12.0,23.0,89,0.00,,,0.28,weatherlink.com 1.10,2013-02-23 05:08:00,
2013-02-22 21:23:00,36.0,33.0,29.76,WNW,296,5.0,15.0,90,0.00,,,0.28,weatherlink.com 1.10,2013-02-23 05:23:00,
2013-02-22 21:38:00,35.9,34.0,29.77,SW,234,5.0,15.0,92,0.00,,,0.28,weatherlink.com 1.10,2013-02-23 05:38:00,
2013-02-22 21:53:00,35.7,34.0,29.77,WNW,300,3.0,9.0,92,0.00,,,0.28,weatherlink.com 1.10,2013-02-23 05:53:00,
2013-02-22 22:08:00,35.6,34.0,29.78,SSW,198,10.0,14.0,92,0.00,,,0.28,weatherlink.com 1.10,2013-02-23 06:08:00,
2013-02-22 22:24:00,35.7,34.0,29.79,SSE,161,14.0,14.0,92,0.00,,,0.28,weatherlink.com 1.10,2013-02-23 06:24:00,
2013-02-22 22:38:00,36.0,34.0,29.80,SE,130,2.0,13.0,92,0.00,,,0.28,weatherlink.com 1.10,2013-02-23 06:38:00,
2013-02-22 22:53:00,35.7,34.0,29.81,ESE,107,3.0,8.0,93,0.00,,,0.28,weatherlink.com 1.10,2013-02-23 06:53:00,
2013-02-22 23:08:00,35.6,34.0,29.82,SE,140,6.0,11.0,93,0.00,,,0.28,weatherlink.com 1.10,2013-02-23 07:08:00,
2013-02-22 23:23:00,35.9,34.0,29.82,WSW,244,7.0,22.0,91,0.00,,,0.28,weatherlink.com 1.10,2013-02-23 07:23:00,
2013-02-22 23:38:00,36.0,34.0,29.82,South,169,4.0,19.0,91,0.00,,,0.28,weatherlink.com 1.10,2013-02-23 07:38:00,
2013-02-22 23:53:00,35.8,34.0,29.83,SE,125,3.0,8.0,92,0.00,,,0.28,weatherlink.com 1.10,2013-02-23 07:53:00,